sensor_id;sensor_type;location;lat;lon;timestamp;P1;durP1;ratioP1;P2;durP2;ratioP2
25752;SDS011;13600;50.816;4.416;2023-08-01T00:00:25;4.90;;;2.00;;
25752;SDS011;13600;50.816;4.416;2023-08-01T00:02:50;5.78;;;2.10;;
25752;SDS011;13600;50.816;4.416;2023-08-01T00:05:16;7.60;;;2.20;;
25752;SDS011;13600;50.816;4.416;2023-08-01T00:07:42;6.63;;;2.33;;
25752;SDS011;13600;50.816;4.416;2023-08-01T00:10:08;5.60;;;2.28;;
25752;SDS011;13600;50.816;4.416;2023-08-01T00:12:34;4.65;;;2.35;;
25752;SDS011;13600;50.816;4.416;2023-08-01T00:14:59;7.75;;;2.60;;
25752;SDS011;13600;50.816;4.416;2023-08-01T00:17:25;6.00;;;2.30;;
25752;SDS011;13600;50.816;4.416;2023-08-01T00:19:51;5.78;;;2.17;;
25752;SDS011;13600;50.816;4.416;2023-08-01T00:22:17;5.28;;;2.40;;
25752;SDS011;13600;50.816;4.416;2023-08-01T00:24:42;6.88;;;2.47;;
25752;SDS011;13600;50.816;4.416;2023-08-01T00:27:08;10.80;;;2.33;;
25752;SDS011;13600;50.816;4.416;2023-08-01T00:29:35;5.68;;;2.22;;
25752;SDS011;13600;50.816;4.416;2023-08-01T00:32:01;7.05;;;2.45;;
25752;SDS011;13600;50.816;4.416;2023-08-01T00:34:28;8.13;;;2.60;;
25752;SDS011;13600;50.816;4.416;2023-08-01T00:36:54;4.88;;;2.47;;
25752;SDS011;13600;50.816;4.416;2023-08-01T00:39:20;6.65;;;2.78;;
25752;SDS011;13600;50.816;4.416;2023-08-01T00:41:47;8.40;;;2.63;;
25752;SDS011;13600;50.816;4.416;2023-08-01T00:44:18;5.72;;;2.70;;
25752;SDS011;13600;50.816;4.416;2023-08-01T00:46:44;10.90;;;2.65;;
25752;SDS011;13600;50.816;4.416;2023-08-01T00:49:10;5.95;;;2.47;;
25752;SDS011;13600;50.816;4.416;2023-08-01T00:51:37;8.95;;;2.85;;
25752;SDS011;13600;50.816;4.416;2023-08-01T00:54:04;6.57;;;2.80;;
25752;SDS011;13600;50.816;4.416;2023-08-01T00:56:31;6.22;;;3.10;;
25752;SDS011;13600;50.816;4.416;2023-08-01T00:59:00;8.70;;;3.13;;
25752;SDS011;13600;50.816;4.416;2023-08-01T01:01:25;9.95;;;3.40;;
25752;SDS011;13600;50.816;4.416;2023-08-01T01:03:51;7.75;;;3.70;;
25752;SDS011;13600;50.816;4.416;2023-08-01T01:06:20;9.73;;;3.50;;
25752;SDS011;13600;50.816;4.416;2023-08-01T01:08:49;7.63;;;3.38;;
25752;SDS011;13600;50.816;4.416;2023-08-01T01:11:15;8.02;;;3.38;;
25752;SDS011;13600;50.816;4.416;2023-08-01T01:13:40;7.40;;;3.63;;
25752;SDS011;13600;50.816;4.416;2023-08-01T01:16:09;7.75;;;3.63;;
25752;SDS011;13600;50.816;4.416;2023-08-01T01:18:38;12.43;;;3.90;;
25752;SDS011;13600;50.816;4.416;2023-08-01T01:21:06;14.57;;;3.90;;
25752;SDS011;13600;50.816;4.416;2023-08-01T01:23:33;12.25;;;4.03;;
25752;SDS011;13600;50.816;4.416;2023-08-01T01:25:59;9.93;;;3.78;;
25752;SDS011;13600;50.816;4.416;2023-08-01T01:28:27;11.27;;;3.83;;
25752;SDS011;13600;50.816;4.416;2023-08-01T01:30:54;9.52;;;4.47;;
25752;SDS011;13600;50.816;4.416;2023-08-01T01:33:20;17.38;;;4.57;;
25752;SDS011;13600;50.816;4.416;2023-08-01T01:35:47;10.50;;;4.15;;
25752;SDS011;13600;50.816;4.416;2023-08-01T01:38:14;7.82;;;3.75;;
25752;SDS011;13600;50.816;4.416;2023-08-01T01:40:43;12.25;;;4.38;;
25752;SDS011;13600;50.816;4.416;2023-08-01T01:43:09;9.13;;;4.07;;
25752;SDS011;13600;50.816;4.416;2023-08-01T01:45:41;10.75;;;4.20;;
25752;SDS011;13600;50.816;4.416;2023-08-01T01:48:10;10.43;;;4.03;;
25752;SDS011;13600;50.816;4.416;2023-08-01T01:50:36;12.15;;;4.53;;
25752;SDS011;13600;50.816;4.416;2023-08-01T01:53:12;9.35;;;4.28;;
25752;SDS011;13600;50.816;4.416;2023-08-01T01:55:38;12.02;;;4.35;;
25752;SDS011;13600;50.816;4.416;2023-08-01T01:58:07;14.70;;;4.18;;
25752;SDS011;13600;50.816;4.416;2023-08-01T02:00:33;12.05;;;4.32;;
25752;SDS011;13600;50.816;4.416;2023-08-01T02:03:02;12.38;;;4.47;;
25752;SDS011;13600;50.816;4.416;2023-08-01T02:05:29;11.15;;;4.28;;
25752;SDS011;13600;50.816;4.416;2023-08-01T02:07:56;9.27;;;4.40;;
25752;SDS011;13600;50.816;4.416;2023-08-01T02:10:21;8.95;;;3.88;;
25752;SDS011;13600;50.816;4.416;2023-08-01T02:12:47;11.88;;;4.47;;
25752;SDS011;13600;50.816;4.416;2023-08-01T02:15:13;10.45;;;5.00;;
25752;SDS011;13600;50.816;4.416;2023-08-01T02:17:39;12.48;;;5.03;;
25752;SDS011;13600;50.816;4.416;2023-08-01T02:20:05;9.75;;;4.40;;
25752;SDS011;13600;50.816;4.416;2023-08-01T02:22:32;11.07;;;4.20;;
25752;SDS011;13600;50.816;4.416;2023-08-01T02:24:58;11.18;;;5.22;;
25752;SDS011;13600;50.816;4.416;2023-08-01T02:27:24;15.30;;;6.00;;
25752;SDS011;13600;50.816;4.416;2023-08-01T02:29:49;19.58;;;4.85;;
25752;SDS011;13600;50.816;4.416;2023-08-01T02:32:16;11.52;;;4.70;;
25752;SDS011;13600;50.816;4.416;2023-08-01T02:34:41;14.90;;;5.00;;
25752;SDS011;13600;50.816;4.416;2023-08-01T02:37:07;16.77;;;5.22;;
25752;SDS011;13600;50.816;4.416;2023-08-01T02:39:34;11.30;;;4.85;;
25752;SDS011;13600;50.816;4.416;2023-08-01T02:42:01;13.77;;;5.20;;
25752;SDS011;13600;50.816;4.416;2023-08-01T02:44:27;14.13;;;5.68;;
25752;SDS011;13600;50.816;4.416;2023-08-01T02:46:53;26.40;;;6.10;;
25752;SDS011;13600;50.816;4.416;2023-08-01T02:49:19;14.55;;;6.13;;
25752;SDS011;13600;50.816;4.416;2023-08-01T02:51:45;15.95;;;5.70;;
25752;SDS011;13600;50.816;4.416;2023-08-01T02:54:10;15.35;;;5.90;;
25752;SDS011;13600;50.816;4.416;2023-08-01T02:56:36;13.77;;;6.20;;
25752;SDS011;13600;50.816;4.416;2023-08-01T02:59:06;16.50;;;6.40;;
25752;SDS011;13600;50.816;4.416;2023-08-01T03:01:33;13.32;;;6.35;;
25752;SDS011;13600;50.816;4.416;2023-08-01T03:04:03;12.10;;;6.30;;
25752;SDS011;13600;50.816;4.416;2023-08-01T03:06:30;21.73;;;6.63;;
25752;SDS011;13600;50.816;4.416;2023-08-01T03:08:58;13.65;;;7.07;;
25752;SDS011;13600;50.816;4.416;2023-08-01T03:11:24;19.15;;;6.53;;
25752;SDS011;13600;50.816;4.416;2023-08-01T03:13:51;16.13;;;6.28;;
25752;SDS011;13600;50.816;4.416;2023-08-01T03:16:16;13.48;;;6.47;;
25752;SDS011;13600;50.816;4.416;2023-08-01T03:18:43;15.10;;;6.47;;
25752;SDS011;13600;50.816;4.416;2023-08-01T03:21:10;16.58;;;6.53;;
25752;SDS011;13600;50.816;4.416;2023-08-01T03:23:36;17.75;;;7.18;;
25752;SDS011;13600;50.816;4.416;2023-08-01T03:26:02;18.85;;;6.45;;
25752;SDS011;13600;50.816;4.416;2023-08-01T03:28:29;21.23;;;6.50;;
25752;SDS011;13600;50.816;4.416;2023-08-01T03:30:55;16.73;;;5.90;;
25752;SDS011;13600;50.816;4.416;2023-08-01T03:33:21;16.88;;;6.68;;
25752;SDS011;13600;50.816;4.416;2023-08-01T03:35:47;16.80;;;6.10;;
25752;SDS011;13600;50.816;4.416;2023-08-01T03:38:12;19.95;;;6.15;;
25752;SDS011;13600;50.816;4.416;2023-08-01T03:40:38;14.88;;;6.28;;
25752;SDS011;13600;50.816;4.416;2023-08-01T03:43:04;14.93;;;6.40;;
25752;SDS011;13600;50.816;4.416;2023-08-01T03:45:31;15.90;;;7.13;;
25752;SDS011;13600;50.816;4.416;2023-08-01T03:47:57;21.27;;;6.72;;
25752;SDS011;13600;50.816;4.416;2023-08-01T03:50:24;19.20;;;6.68;;
25752;SDS011;13600;50.816;4.416;2023-08-01T03:52:50;18.45;;;7.00;;
25752;SDS011;13600;50.816;4.416;2023-08-01T03:55:16;20.50;;;6.60;;
25752;SDS011;13600;50.816;4.416;2023-08-01T03:57:43;18.95;;;7.68;;
25752;SDS011;13600;50.816;4.416;2023-08-01T04:00:09;19.85;;;7.78;;
25752;SDS011;13600;50.816;4.416;2023-08-01T04:02:44;27.35;;;6.85;;
25752;SDS011;13600;50.816;4.416;2023-08-01T04:05:12;18.67;;;6.50;;
25752;SDS011;13600;50.816;4.416;2023-08-01T04:07:38;18.42;;;7.30;;
25752;SDS011;13600;50.816;4.416;2023-08-01T04:10:03;23.67;;;7.82;;
25752;SDS011;13600;50.816;4.416;2023-08-01T04:12:31;20.98;;;7.10;;
25752;SDS011;13600;50.816;4.416;2023-08-01T04:14:58;23.23;;;7.15;;
25752;SDS011;13600;50.816;4.416;2023-08-01T04:17:24;17.98;;;6.40;;
25752;SDS011;13600;50.816;4.416;2023-08-01T04:19:50;21.70;;;7.10;;
25752;SDS011;13600;50.816;4.416;2023-08-01T04:22:16;19.17;;;6.72;;
25752;SDS011;13600;50.816;4.416;2023-08-01T04:24:41;26.13;;;7.57;;
25752;SDS011;13600;50.816;4.416;2023-08-01T04:27:08;22.90;;;7.60;;
25752;SDS011;13600;50.816;4.416;2023-08-01T04:29:34;23.55;;;8.02;;
25752;SDS011;13600;50.816;4.416;2023-08-01T04:32:00;19.02;;;7.10;;
25752;SDS011;13600;50.816;4.416;2023-08-01T04:34:27;20.75;;;7.10;;
25752;SDS011;13600;50.816;4.416;2023-08-01T04:36:54;21.65;;;7.50;;
25752;SDS011;13600;50.816;4.416;2023-08-01T04:39:20;21.73;;;8.20;;
25752;SDS011;13600;50.816;4.416;2023-08-01T04:41:52;21.17;;;7.38;;
25752;SDS011;13600;50.816;4.416;2023-08-01T04:44:19;21.58;;;7.65;;
25752;SDS011;13600;50.816;4.416;2023-08-01T04:46:47;17.08;;;7.30;;
25752;SDS011;13600;50.816;4.416;2023-08-01T04:49:13;19.20;;;7.85;;
25752;SDS011;13600;50.816;4.416;2023-08-01T04:51:39;23.25;;;7.32;;
25752;SDS011;13600;50.816;4.416;2023-08-01T04:54:06;19.02;;;7.03;;
25752;SDS011;13600;50.816;4.416;2023-08-01T04:56:31;27.55;;;8.07;;
25752;SDS011;13600;50.816;4.416;2023-08-01T04:58:57;16.70;;;7.25;;
25752;SDS011;13600;50.816;4.416;2023-08-01T05:01:23;23.42;;;7.47;;
25752;SDS011;13600;50.816;4.416;2023-08-01T05:03:48;18.42;;;7.28;;
25752;SDS011;13600;50.816;4.416;2023-08-01T05:06:14;28.63;;;7.25;;
25752;SDS011;13600;50.816;4.416;2023-08-01T05:08:40;19.25;;;7.22;;
25752;SDS011;13600;50.816;4.416;2023-08-01T05:11:05;17.50;;;6.80;;
25752;SDS011;13600;50.816;4.416;2023-08-01T05:13:31;24.38;;;7.72;;
25752;SDS011;13600;50.816;4.416;2023-08-01T05:15:57;21.90;;;6.90;;
25752;SDS011;13600;50.816;4.416;2023-08-01T05:18:28;21.77;;;6.75;;
25752;SDS011;13600;50.816;4.416;2023-08-01T05:20:54;22.50;;;7.20;;
25752;SDS011;13600;50.816;4.416;2023-08-01T05:23:20;21.60;;;7.18;;
25752;SDS011;13600;50.816;4.416;2023-08-01T05:25:45;20.65;;;6.60;;
25752;SDS011;13600;50.816;4.416;2023-08-01T05:28:12;21.20;;;6.97;;
25752;SDS011;13600;50.816;4.416;2023-08-01T05:30:38;19.80;;;6.95;;
25752;SDS011;13600;50.816;4.416;2023-08-01T05:33:05;20.55;;;7.25;;
25752;SDS011;13600;50.816;4.416;2023-08-01T05:35:31;18.48;;;7.10;;
25752;SDS011;13600;50.816;4.416;2023-08-01T05:37:56;20.10;;;7.05;;
25752;SDS011;13600;50.816;4.416;2023-08-01T05:40:22;22.52;;;6.63;;
25752;SDS011;13600;50.816;4.416;2023-08-01T05:42:48;21.00;;;6.45;;
25752;SDS011;13600;50.816;4.416;2023-08-01T05:45:15;20.73;;;6.22;;
25752;SDS011;13600;50.816;4.416;2023-08-01T05:47:41;17.92;;;6.60;;
25752;SDS011;13600;50.816;4.416;2023-08-01T05:50:08;16.63;;;6.20;;
25752;SDS011;13600;50.816;4.416;2023-08-01T05:52:36;19.42;;;6.47;;
25752;SDS011;13600;50.816;4.416;2023-08-01T05:55:03;15.82;;;6.72;;
25752;SDS011;13600;50.816;4.416;2023-08-01T05:57:29;18.45;;;6.43;;
25752;SDS011;13600;50.816;4.416;2023-08-01T05:59:55;19.77;;;6.30;;
25752;SDS011;13600;50.816;4.416;2023-08-01T06:02:20;22.17;;;6.90;;
25752;SDS011;13600;50.816;4.416;2023-08-01T06:04:46;22.25;;;6.20;;
25752;SDS011;13600;50.816;4.416;2023-08-01T06:07:12;25.70;;;7.03;;
25752;SDS011;13600;50.816;4.416;2023-08-01T06:09:38;19.10;;;6.10;;
25752;SDS011;13600;50.816;4.416;2023-08-01T06:12:04;17.75;;;5.82;;
25752;SDS011;13600;50.816;4.416;2023-08-01T06:14:30;18.50;;;6.72;;
25752;SDS011;13600;50.816;4.416;2023-08-01T06:16:56;16.42;;;5.95;;
25752;SDS011;13600;50.816;4.416;2023-08-01T06:19:21;16.27;;;6.18;;
25752;SDS011;13600;50.816;4.416;2023-08-01T06:21:47;20.45;;;6.05;;
25752;SDS011;13600;50.816;4.416;2023-08-01T06:24:13;18.88;;;6.80;;
25752;SDS011;13600;50.816;4.416;2023-08-01T06:26:38;20.10;;;6.63;;
25752;SDS011;13600;50.816;4.416;2023-08-01T06:29:04;24.38;;;6.57;;
25752;SDS011;13600;50.816;4.416;2023-08-01T06:31:30;19.83;;;5.63;;
25752;SDS011;13600;50.816;4.416;2023-08-01T06:33:55;13.35;;;5.95;;
25752;SDS011;13600;50.816;4.416;2023-08-01T06:36:21;19.77;;;5.20;;
25752;SDS011;13600;50.816;4.416;2023-08-01T06:38:47;17.85;;;5.97;;
25752;SDS011;13600;50.816;4.416;2023-08-01T06:41:13;18.58;;;6.25;;
25752;SDS011;13600;50.816;4.416;2023-08-01T06:43:39;19.63;;;5.95;;
25752;SDS011;13600;50.816;4.416;2023-08-01T06:46:05;16.88;;;5.95;;
25752;SDS011;13600;50.816;4.416;2023-08-01T06:48:31;15.90;;;5.47;;
25752;SDS011;13600;50.816;4.416;2023-08-01T06:50:59;15.43;;;5.47;;
25752;SDS011;13600;50.816;4.416;2023-08-01T06:53:26;22.75;;;5.70;;
25752;SDS011;13600;50.816;4.416;2023-08-01T06:55:52;15.60;;;5.85;;
25752;SDS011;13600;50.816;4.416;2023-08-01T06:58:17;17.42;;;5.57;;
25752;SDS011;13600;50.816;4.416;2023-08-01T07:00:43;15.88;;;6.07;;
25752;SDS011;13600;50.816;4.416;2023-08-01T07:03:09;18.63;;;6.18;;
25752;SDS011;13600;50.816;4.416;2023-08-01T07:05:35;14.35;;;5.60;;
25752;SDS011;13600;50.816;4.416;2023-08-01T07:08:00;19.40;;;6.00;;
25752;SDS011;13600;50.816;4.416;2023-08-01T07:10:26;14.93;;;5.25;;
25752;SDS011;13600;50.816;4.416;2023-08-01T07:12:52;12.80;;;5.30;;
25752;SDS011;13600;50.816;4.416;2023-08-01T07:15:17;17.73;;;6.05;;
25752;SDS011;13600;50.816;4.416;2023-08-01T07:17:43;16.17;;;5.40;;
25752;SDS011;13600;50.816;4.416;2023-08-01T07:20:09;13.35;;;4.63;;
25752;SDS011;13600;50.816;4.416;2023-08-01T07:22:35;13.98;;;5.35;;
25752;SDS011;13600;50.816;4.416;2023-08-01T07:25:00;14.95;;;5.55;;
25752;SDS011;13600;50.816;4.416;2023-08-01T07:27:26;17.38;;;5.63;;
25752;SDS011;13600;50.816;4.416;2023-08-01T07:29:54;13.68;;;4.72;;
25752;SDS011;13600;50.816;4.416;2023-08-01T07:32:19;15.48;;;5.15;;
25752;SDS011;13600;50.816;4.416;2023-08-01T07:34:45;18.75;;;4.97;;
25752;SDS011;13600;50.816;4.416;2023-08-01T07:37:11;18.00;;;5.68;;
25752;SDS011;13600;50.816;4.416;2023-08-01T07:39:36;12.90;;;5.00;;
25752;SDS011;13600;50.816;4.416;2023-08-01T07:42:02;17.80;;;5.80;;
25752;SDS011;13600;50.816;4.416;2023-08-01T07:44:28;15.45;;;4.97;;
25752;SDS011;13600;50.816;4.416;2023-08-01T07:46:54;16.33;;;5.03;;
25752;SDS011;13600;50.816;4.416;2023-08-01T07:49:19;13.63;;;4.88;;
25752;SDS011;13600;50.816;4.416;2023-08-01T07:51:45;12.68;;;4.38;;
25752;SDS011;13600;50.816;4.416;2023-08-01T07:54:10;15.75;;;4.90;;
25752;SDS011;13600;50.816;4.416;2023-08-01T07:56:36;14.52;;;4.60;;
25752;SDS011;13600;50.816;4.416;2023-08-01T07:59:01;12.82;;;4.38;;
25752;SDS011;13600;50.816;4.416;2023-08-01T08:01:27;15.30;;;4.82;;
25752;SDS011;13600;50.816;4.416;2023-08-01T08:03:53;15.50;;;4.68;;
25752;SDS011;13600;50.816;4.416;2023-08-01T08:06:18;14.23;;;4.18;;
25752;SDS011;13600;50.816;4.416;2023-08-01T08:08:46;14.23;;;3.97;;
25752;SDS011;13600;50.816;4.416;2023-08-01T08:11:12;16.33;;;3.78;;
25752;SDS011;13600;50.816;4.416;2023-08-01T08:13:38;10.57;;;3.88;;
25752;SDS011;13600;50.816;4.416;2023-08-01T08:16:04;10.98;;;3.30;;
25752;SDS011;13600;50.816;4.416;2023-08-01T08:18:30;13.18;;;3.72;;
25752;SDS011;13600;50.816;4.416;2023-08-01T08:20:56;16.70;;;3.92;;
25752;SDS011;13600;50.816;4.416;2023-08-01T08:23:22;11.93;;;3.20;;
25752;SDS011;13600;50.816;4.416;2023-08-01T08:25:47;12.82;;;3.50;;
25752;SDS011;13600;50.816;4.416;2023-08-01T08:28:14;14.10;;;3.65;;
25752;SDS011;13600;50.816;4.416;2023-08-01T08:30:41;10.00;;;3.22;;
25752;SDS011;13600;50.816;4.416;2023-08-01T08:33:08;11.20;;;3.30;;
25752;SDS011;13600;50.816;4.416;2023-08-01T08:35:35;11.13;;;3.40;;
25752;SDS011;13600;50.816;4.416;2023-08-01T08:38:03;17.25;;;4.50;;
25752;SDS011;13600;50.816;4.416;2023-08-01T08:40:29;10.98;;;3.00;;
25752;SDS011;13600;50.816;4.416;2023-08-01T08:43:00;8.25;;;3.10;;
25752;SDS011;13600;50.816;4.416;2023-08-01T08:45:29;11.82;;;3.25;;
25752;SDS011;13600;50.816;4.416;2023-08-01T08:48:00;14.20;;;3.47;;
25752;SDS011;13600;50.816;4.416;2023-08-01T08:50:29;8.73;;;2.72;;
25752;SDS011;13600;50.816;4.416;2023-08-01T08:52:56;11.45;;;2.50;;
25752;SDS011;13600;50.816;4.416;2023-08-01T08:55:22;6.85;;;2.78;;
25752;SDS011;13600;50.816;4.416;2023-08-01T08:57:51;10.57;;;3.00;;
25752;SDS011;13600;50.816;4.416;2023-08-01T09:00:17;10.57;;;2.92;;
25752;SDS011;13600;50.816;4.416;2023-08-01T09:02:44;10.88;;;3.13;;
25752;SDS011;13600;50.816;4.416;2023-08-01T09:05:10;12.13;;;3.22;;
25752;SDS011;13600;50.816;4.416;2023-08-01T09:07:38;13.48;;;3.67;;
25752;SDS011;13600;50.816;4.416;2023-08-01T09:10:07;11.43;;;3.58;;
25752;SDS011;13600;50.816;4.416;2023-08-01T09:12:36;12.25;;;3.83;;
25752;SDS011;13600;50.816;4.416;2023-08-01T09:15:02;15.50;;;3.95;;
25752;SDS011;13600;50.816;4.416;2023-08-01T09:17:28;9.77;;;3.28;;
25752;SDS011;13600;50.816;4.416;2023-08-01T09:20:03;10.30;;;2.72;;
25752;SDS011;13600;50.816;4.416;2023-08-01T09:22:40;11.70;;;3.17;;
25752;SDS011;13600;50.816;4.416;2023-08-01T09:25:07;7.55;;;2.25;;
25752;SDS011;13600;50.816;4.416;2023-08-01T09:27:33;12.82;;;2.50;;
25752;SDS011;13600;50.816;4.416;2023-08-01T09:30:11;7.13;;;2.40;;
25752;SDS011;13600;50.816;4.416;2023-08-01T09:32:50;11.13;;;2.40;;
25752;SDS011;13600;50.816;4.416;2023-08-01T09:35:17;10.10;;;2.47;;
25752;SDS011;13600;50.816;4.416;2023-08-01T09:37:43;11.25;;;3.15;;
25752;SDS011;13600;50.816;4.416;2023-08-01T09:40:09;8.20;;;2.60;;
25752;SDS011;13600;50.816;4.416;2023-08-01T09:42:39;7.53;;;2.58;;
25752;SDS011;13600;50.816;4.416;2023-08-01T09:45:14;7.95;;;2.67;;
25752;SDS011;13600;50.816;4.416;2023-08-01T09:47:41;10.15;;;2.50;;
25752;SDS011;13600;50.816;4.416;2023-08-01T09:50:11;9.57;;;2.67;;
25752;SDS011;13600;50.816;4.416;2023-08-01T09:52:45;8.77;;;2.15;;
25752;SDS011;13600;50.816;4.416;2023-08-01T09:55:17;11.73;;;2.70;;
25752;SDS011;13600;50.816;4.416;2023-08-01T09:57:59;10.60;;;2.70;;
25752;SDS011;13600;50.816;4.416;2023-08-01T10:00:28;9.80;;;2.22;;
25752;SDS011;13600;50.816;4.416;2023-08-01T10:02:55;7.53;;;2.20;;
25752;SDS011;13600;50.816;4.416;2023-08-01T10:05:29;11.18;;;2.70;;
25752;SDS011;13600;50.816;4.416;2023-08-01T10:07:59;7.13;;;2.30;;
25752;SDS011;13600;50.816;4.416;2023-08-01T10:10:26;10.65;;;2.63;;
25752;SDS011;13600;50.816;4.416;2023-08-01T10:12:53;8.00;;;2.33;;
25752;SDS011;13600;50.816;4.416;2023-08-01T10:15:25;10.68;;;2.67;;
25752;SDS011;13600;50.816;4.416;2023-08-01T10:17:54;11.93;;;2.90;;
25752;SDS011;13600;50.816;4.416;2023-08-01T10:20:20;9.25;;;2.33;;
25752;SDS011;13600;50.816;4.416;2023-08-01T10:22:47;7.70;;;2.15;;
25752;SDS011;13600;50.816;4.416;2023-08-01T10:25:16;8.68;;;2.60;;
25752;SDS011;13600;50.816;4.416;2023-08-01T10:27:43;9.73;;;2.38;;
25752;SDS011;13600;50.816;4.416;2023-08-01T10:30:09;9.40;;;2.42;;
25752;SDS011;13600;50.816;4.416;2023-08-01T10:32:36;7.90;;;2.10;;
25752;SDS011;13600;50.816;4.416;2023-08-01T10:35:03;13.15;;;2.60;;
25752;SDS011;13600;50.816;4.416;2023-08-01T10:37:39;6.47;;;1.98;;
25752;SDS011;13600;50.816;4.416;2023-08-01T10:40:10;5.65;;;2.03;;
25752;SDS011;13600;50.816;4.416;2023-08-01T10:42:39;9.35;;;2.13;;
25752;SDS011;13600;50.816;4.416;2023-08-01T10:45:07;6.72;;;2.00;;
25752;SDS011;13600;50.816;4.416;2023-08-01T10:47:45;10.98;;;2.33;;
25752;SDS011;13600;50.816;4.416;2023-08-01T10:50:14;12.43;;;2.30;;
25752;SDS011;13600;50.816;4.416;2023-08-01T10:52:40;10.40;;;2.58;;
25752;SDS011;13600;50.816;4.416;2023-08-01T10:55:07;10.18;;;2.88;;
25752;SDS011;13600;50.816;4.416;2023-08-01T10:57:38;11.15;;;2.97;;
25752;SDS011;13600;50.816;4.416;2023-08-01T11:00:04;8.07;;;2.38;;
25752;SDS011;13600;50.816;4.416;2023-08-01T11:02:34;9.60;;;2.10;;
25752;SDS011;13600;50.816;4.416;2023-08-01T11:05:01;8.45;;;2.03;;
25752;SDS011;13600;50.816;4.416;2023-08-01T11:07:29;8.13;;;1.92;;
25752;SDS011;13600;50.816;4.416;2023-08-01T11:10:05;7.70;;;2.00;;
25752;SDS011;13600;50.816;4.416;2023-08-01T11:12:34;8.35;;;2.10;;
25752;SDS011;13600;50.816;4.416;2023-08-01T11:15:01;6.18;;;1.65;;
25752;SDS011;13600;50.816;4.416;2023-08-01T11:17:28;7.57;;;1.77;;
25752;SDS011;13600;50.816;4.416;2023-08-01T11:20:02;5.53;;;1.73;;
25752;SDS011;13600;50.816;4.416;2023-08-01T11:22:29;5.40;;;1.95;;
25752;SDS011;13600;50.816;4.416;2023-08-01T11:24:55;7.43;;;2.35;;
25752;SDS011;13600;50.816;4.416;2023-08-01T11:27:21;6.53;;;1.80;;
25752;SDS011;13600;50.816;4.416;2023-08-01T11:29:46;8.93;;;2.55;;
25752;SDS011;13600;50.816;4.416;2023-08-01T11:32:13;7.03;;;3.03;;
25752;SDS011;13600;50.816;4.416;2023-08-01T11:34:39;4.13;;;1.60;;
25752;SDS011;13600;50.816;4.416;2023-08-01T11:37:14;8.27;;;1.80;;
25752;SDS011;13600;50.816;4.416;2023-08-01T11:39:43;4.82;;;1.60;;
25752;SDS011;13600;50.816;4.416;2023-08-01T11:42:13;6.85;;;1.60;;
25752;SDS011;13600;50.816;4.416;2023-08-01T11:44:43;5.88;;;1.80;;
25752;SDS011;13600;50.816;4.416;2023-08-01T11:47:10;7.40;;;1.65;;
25752;SDS011;13600;50.816;4.416;2023-08-01T11:49:44;6.82;;;1.90;;
25752;SDS011;13600;50.816;4.416;2023-08-01T11:52:22;7.35;;;1.83;;
25752;SDS011;13600;50.816;4.416;2023-08-01T11:54:52;5.15;;;1.40;;
25752;SDS011;13600;50.816;4.416;2023-08-01T11:57:19;7.53;;;1.88;;
25752;SDS011;13600;50.816;4.416;2023-08-01T11:59:51;8.05;;;1.88;;
25752;SDS011;13600;50.816;4.416;2023-08-01T12:02:25;5.75;;;1.50;;
25752;SDS011;13600;50.816;4.416;2023-08-01T12:04:53;4.95;;;1.60;;
25752;SDS011;13600;50.816;4.416;2023-08-01T12:07:19;7.38;;;1.60;;
25752;SDS011;13600;50.816;4.416;2023-08-01T12:09:55;6.20;;;1.50;;
25752;SDS011;13600;50.816;4.416;2023-08-01T12:12:21;6.90;;;1.42;;
25752;SDS011;13600;50.816;4.416;2023-08-01T12:14:46;5.75;;;1.42;;
25752;SDS011;13600;50.816;4.416;2023-08-01T12:17:12;6.50;;;1.42;;
25752;SDS011;13600;50.816;4.416;2023-08-01T12:19:38;6.63;;;1.67;;
25752;SDS011;13600;50.816;4.416;2023-08-01T12:22:03;7.20;;;1.55;;
25752;SDS011;13600;50.816;4.416;2023-08-01T12:24:29;4.45;;;1.30;;
25752;SDS011;13600;50.816;4.416;2023-08-01T12:26:55;5.70;;;1.55;;
25752;SDS011;13600;50.816;4.416;2023-08-01T12:29:21;5.15;;;1.42;;
25752;SDS011;13600;50.816;4.416;2023-08-01T12:31:47;3.80;;;1.25;;
25752;SDS011;13600;50.816;4.416;2023-08-01T12:34:14;7.90;;;1.77;;
25752;SDS011;13600;50.816;4.416;2023-08-01T12:36:39;6.82;;;1.88;;
25752;SDS011;13600;50.816;4.416;2023-08-01T12:39:05;5.78;;;1.58;;
25752;SDS011;13600;50.816;4.416;2023-08-01T12:41:35;4.70;;;1.35;;
25752;SDS011;13600;50.816;4.416;2023-08-01T12:44:02;5.20;;;1.38;;
25752;SDS011;13600;50.816;4.416;2023-08-01T12:46:28;5.35;;;1.30;;
25752;SDS011;13600;50.816;4.416;2023-08-01T12:48:56;4.78;;;1.55;;
25752;SDS011;13600;50.816;4.416;2023-08-01T12:51:22;5.45;;;1.27;;
25752;SDS011;13600;50.816;4.416;2023-08-01T12:53:47;4.50;;;1.15;;
25752;SDS011;13600;50.816;4.416;2023-08-01T12:56:13;6.88;;;1.58;;
25752;SDS011;13600;50.816;4.416;2023-08-01T12:58:39;4.20;;;1.42;;
25752;SDS011;13600;50.816;4.416;2023-08-01T13:01:05;9.00;;;1.60;;
25752;SDS011;13600;50.816;4.416;2023-08-01T13:03:31;5.78;;;1.70;;
25752;SDS011;13600;50.816;4.416;2023-08-01T13:05:57;7.40;;;1.90;;
25752;SDS011;13600;50.816;4.416;2023-08-01T13:08:23;5.47;;;1.48;;
25752;SDS011;13600;50.816;4.416;2023-08-01T13:10:49;11.60;;;2.05;;
25752;SDS011;13600;50.816;4.416;2023-08-01T13:13:16;5.68;;;1.50;;
25752;SDS011;13600;50.816;4.416;2023-08-01T13:15:42;13.57;;;1.70;;
25752;SDS011;13600;50.816;4.416;2023-08-01T13:18:09;7.57;;;1.73;;
25752;SDS011;13600;50.816;4.416;2023-08-01T13:20:35;6.55;;;1.50;;
25752;SDS011;13600;50.816;4.416;2023-08-01T13:23:01;6.32;;;1.52;;
25752;SDS011;13600;50.816;4.416;2023-08-01T13:25:28;5.18;;;1.67;;
25752;SDS011;13600;50.816;4.416;2023-08-01T13:27:54;6.18;;;1.48;;
25752;SDS011;13600;50.816;4.416;2023-08-01T13:30:19;6.38;;;1.52;;
25752;SDS011;13600;50.816;4.416;2023-08-01T13:32:46;8.27;;;2.00;;
25752;SDS011;13600;50.816;4.416;2023-08-01T13:35:11;5.22;;;1.63;;
25752;SDS011;13600;50.816;4.416;2023-08-01T13:37:38;6.32;;;1.95;;
25752;SDS011;13600;50.816;4.416;2023-08-01T13:40:04;5.40;;;1.45;;
25752;SDS011;13600;50.816;4.416;2023-08-01T13:42:30;8.32;;;1.80;;
25752;SDS011;13600;50.816;4.416;2023-08-01T13:44:56;7.78;;;1.60;;
25752;SDS011;13600;50.816;4.416;2023-08-01T13:47:22;4.10;;;1.60;;
25752;SDS011;13600;50.816;4.416;2023-08-01T13:49:48;5.15;;;1.60;;
25752;SDS011;13600;50.816;4.416;2023-08-01T13:52:14;5.20;;;1.58;;
25752;SDS011;13600;50.816;4.416;2023-08-01T13:54:39;8.63;;;1.63;;
25752;SDS011;13600;50.816;4.416;2023-08-01T13:57:05;3.95;;;1.35;;
25752;SDS011;13600;50.816;4.416;2023-08-01T13:59:31;6.25;;;1.45;;
25752;SDS011;13600;50.816;4.416;2023-08-01T14:01:57;6.97;;;1.70;;
25752;SDS011;13600;50.816;4.416;2023-08-01T14:04:22;9.40;;;1.77;;
25752;SDS011;13600;50.816;4.416;2023-08-01T14:06:48;8.27;;;1.63;;
25752;SDS011;13600;50.816;4.416;2023-08-01T14:09:14;5.05;;;1.40;;
25752;SDS011;13600;50.816;4.416;2023-08-01T14:11:39;4.68;;;1.50;;
25752;SDS011;13600;50.816;4.416;2023-08-01T14:14:05;6.03;;;1.30;;
25752;SDS011;13600;50.816;4.416;2023-08-01T14:16:31;6.95;;;1.58;;
25752;SDS011;13600;50.816;4.416;2023-08-01T14:18:57;5.80;;;1.08;;
25752;SDS011;13600;50.816;4.416;2023-08-01T14:21:23;7.30;;;1.15;;
25752;SDS011;13600;50.816;4.416;2023-08-01T14:23:49;4.97;;;1.40;;
25752;SDS011;13600;50.816;4.416;2023-08-01T14:26:14;6.07;;;1.10;;
25752;SDS011;13600;50.816;4.416;2023-08-01T14:28:40;7.30;;;1.40;;
25752;SDS011;13600;50.816;4.416;2023-08-01T14:31:06;9.15;;;1.67;;
25752;SDS011;13600;50.816;4.416;2023-08-01T14:33:32;6.30;;;1.58;;
25752;SDS011;13600;50.816;4.416;2023-08-01T14:35:58;7.95;;;1.50;;
25752;SDS011;13600;50.816;4.416;2023-08-01T14:38:24;13.32;;;1.52;;